Time;durP1;ratioP1;P1;durP2;ratioP2;P2;SDS_P1;SDS_P2;PMS_P1;PMS_P2;Temp;Humidity;BMP_temperature;BMP_pressure;BME280_temperature;BME280_humidity;BME280_pressure;Samples;Min_cycle;Max_cycle;Signal;HPM_P1;HPM_P2
2022/05/08 00:00:29;;;;;;;20.67;7.97;;;12.30;99.90;;;;;;4996258;28;20045;-78
2022/05/08 00:02:55;;;;;;;24.42;9.38;;;12.30;99.90;;;;;;4986879;28;20058;-78
2022/05/08 00:05:21;;;;;;;23.75;9.68;;;12.30;99.90;;;;;;4990128;28;20113;-77
2022/05/08 00:07:47;;;;;;;17.63;8.20;;;12.30;99.90;;;;;;4992827;28;20648;-78
2022/05/08 00:10:13;;;;;;;12.07;7.50;;;12.30;99.90;;;;;;4971136;28;20031;-78
2022/05/08 00:12:38;;;;;;;27.52;9.82;;;12.30;99.90;;;;;;4990308;28;20141;-78
2022/05/08 00:15:04;;;;;;;49.47;13.40;;;12.30;99.90;;;;;;4991507;28;21365;-78
2022/05/08 00:17:34;;;;;;;26.77;11.00;;;12.30;99.90;;;;;;4983658;28;20129;-78
2022/05/08 00:20:02;;;;;;;16.08;8.07;;;12.20;99.90;;;;;;4994302;28;20113;-78
2022/05/08 00:22:27;;;;;;;11.77;7.05;;;12.20;99.90;;;;;;4991421;28;20029;-78
2022/05/08 00:24:53;;;;;;;9.07;6.50;;;12.20;99.90;;;;;;4984492;28;20038;-77
2022/05/08 00:27:19;;;;;;;12.25;6.90;;;12.20;99.90;;;;;;4990543;28;20098;-77
2022/05/08 00:29:44;;;;;;;8.95;6.28;;;12.20;99.90;;;;;;4988157;28;20041;-78
2022/05/08 00:32:10;;;;;;;6.88;5.65;;;12.20;99.90;;;;;;4967848;28;20053;-77
2022/05/08 00:34:36;;;;;;;6.00;5.28;;;12.10;99.90;;;;;;4966284;28;20035;-78
2022/05/08 00:37:02;;;;;;;6.60;5.40;;;12.10;99.90;;;;;;4974222;28;20041;-78
2022/05/08 00:39:27;;;;;;;6.07;4.80;;;12.10;99.90;;;;;;4971776;28;20027;-78
2022/05/08 00:41:53;;;;;;;6.05;4.95;;;12.00;99.90;;;;;;4970184;28;20529;-78
2022/05/08 00:44:19;;;;;;;5.82;4.65;;;12.00;99.90;;;;;;4951205;28;20554;-78
2022/05/08 00:46:44;;;;;;;4.95;4.38;;;12.00;99.90;;;;;;4968678;28;20125;-77
2022/05/08 00:49:10;;;;;;;5.53;4.80;;;12.00;99.90;;;;;;4966817;28;20034;-78
2022/05/08 00:51:36;;;;;;;7.05;5.45;;;12.00;99.90;;;;;;4965589;28;20066;-77
2022/05/08 00:54:03;;;;;;;5.82;5.03;;;11.90;99.90;;;;;;4966713;28;20065;-77
2022/05/08 00:56:29;;;;;;;6.22;5.22;;;11.80;99.90;;;;;;4972559;28;20035;-77
2022/05/08 00:58:56;;;;;;;39.53;12.55;;;11.90;99.90;;;;;;4971905;28;20045;-77
2022/05/08 01:01:22;;;;;;;25.52;9.15;;;11.90;99.90;;;;;;4977154;28;20081;-77
2022/05/08 01:03:48;;;;;;;28.50;9.38;;;11.90;99.90;;;;;;4987532;28;20041;-77
2022/05/08 01:06:16;;;;;;;15.30;7.97;;;11.90;99.90;;;;;;4981989;28;20069;-77
2022/05/08 01:08:44;;;;;;;7.50;5.47;;;11.90;99.90;;;;;;4991725;28;20419;-77
2022/05/08 01:11:11;;;;;;;5.40;4.15;;;11.90;99.90;;;;;;4987410;28;22438;-77
2022/05/08 01:13:37;;;;;;;4.30;3.90;;;11.80;99.90;;;;;;4989087;28;20041;-77
2022/05/08 01:16:08;;;;;;;3.80;3.53;;;11.70;99.90;;;;;;4988217;28;20462;-78
2022/05/08 01:18:34;;;;;;;4.78;4.18;;;11.70;99.90;;;;;;4978559;28;20061;-77
2022/05/08 01:20:59;;;;;;;5.18;3.55;;;11.60;99.90;;;;;;4984406;28;20039;-77
2022/05/08 01:23:25;;;;;;;5.65;3.85;;;11.60;99.90;;;;;;4991938;28;20384;-78
2022/05/08 01:25:55;;;;;;;5.85;4.47;;;11.60;99.90;;;;;;4985092;28;20058;-77
2022/05/08 01:28:23;;;;;;;7.57;5.28;;;11.60;99.90;;;;;;4973190;28;20102;-78
2022/05/08 01:30:51;;;;;;;16.20;7.93;;;11.60;99.90;;;;;;4989554;28;20035;-78
2022/05/08 01:33:18;;;;;;;14.60;6.47;;;11.60;99.90;;;;;;4988526;28;20061;-78
2022/05/08 01:35:44;;;;;;;8.52;4.63;;;11.60;99.90;;;;;;4986209;28;20482;-77
2022/05/08 01:38:13;;;;;;;7.15;4.80;;;11.50;99.90;;;;;;4988437;28;20891;-77
2022/05/08 01:40:39;;;;;;;7.63;5.25;;;11.50;99.90;;;;;;4971895;28;20137;-78
2022/05/08 01:43:05;;;;;;;9.50;6.43;;;11.40;99.90;;;;;;4988418;28;20042;-77
2022/05/08 01:45:31;;;;;;;8.57;5.32;;;11.40;99.90;;;;;;4985244;28;20034;-78
2022/05/08 01:50:42;;;;;;;10.60;7.07;;;11.40;99.90;;;;;;4997257;28;20041;-77
2022/05/08 01:53:08;;;;;;;12.73;6.65;;;11.40;99.90;;;;;;4993008;28;20034;-77
2022/05/08 01:55:33;;;;;;;9.88;6.30;;;11.40;99.90;;;;;;4991170;28;20030;-77
2022/05/08 01:57:59;;;;;;;9.80;6.72;;;11.40;99.90;;;;;;4989369;28;20034;-77
2022/05/08 02:00:26;;;;;;;10.45;7.30;;;11.40;99.90;;;;;;4968321;28;20741;-77
2022/05/08 02:02:53;;;;;;;10.25;6.65;;;11.30;99.90;;;;;;4984747;28;20108;-77
2022/05/08 02:05:20;;;;;;;10.07;6.68;;;11.40;99.90;;;;;;4986520;28;20948;-77
2022/05/08 02:07:47;;;;;;;9.03;6.40;;;11.40;99.90;;;;;;4989542;28;20038;-77
2022/05/08 02:10:14;;;;;;;9.95;6.35;;;11.40;99.90;;;;;;4987327;28;20026;-76
2022/05/08 02:12:41;;;;;;;6.70;5.30;;;11.40;99.90;;;;;;4988432;28;20038;-78
2022/05/08 02:15:08;;;;;;;5.97;4.68;;;11.40;99.90;;;;;;4982390;28;20034;-77
2022/05/08 02:17:35;;;;;;;4.35;3.92;;;11.30;99.90;;;;;;4987537;28;20042;-78
2022/05/08 02:20:01;;;;;;;4.57;4.07;;;11.30;99.90;;;;;;4985972;28;20041;-78
2022/05/08 02:22:27;;;;;;;5.40;4.65;;;11.20;99.90;;;;;;4988605;28;20041;-78
2022/05/08 02:24:53;;;;;;;5.88;4.60;;;11.20;99.90;;;;;;4985932;28;20030;-77
2022/05/08 02:27:18;;;;;;;7.30;5.78;;;11.20;99.90;;;;;;4972448;28;20537;-78
2022/05/08 02:29:48;;;;;;;6.45;4.72;;;11.20;99.90;;;;;;4989754;28;20048;-78
2022/05/08 02:32:14;;;;;;;5.43;4.60;;;11.20;99.90;;;;;;4981565;28;20326;-78
2022/05/08 02:34:40;;;;;;;6.10;4.38;;;11.10;99.90;;;;;;4989598;28;20485;-77
2022/05/08 02:37:06;;;;;;;5.93;4.47;;;11.10;99.90;;;;;;4986847;28;20050;-76
2022/05/08 02:39:32;;;;;;;11.00;4.47;;;11.00;99.90;;;;;;4990769;28;20370;-77
2022/05/08 02:41:57;;;;;;;34.17;6.05;;;10.90;99.90;;;;;;4992784;28;20496;-77
2022/05/08 02:44:23;;;;;;;5.22;4.57;;;10.90;99.90;;;;;;4991630;28;20529;-76
2022/05/08 02:46:49;;;;;;;19.63;9.63;;;10.80;99.90;;;;;;4972455;28;20038;-77
2022/05/08 02:49:14;;;;;;;22.95;10.68;;;10.80;99.90;;;;;;4992847;28;20026;-77
2022/05/08 02:51:40;;;;;;;17.52;9.73;;;10.80;99.90;;;;;;4988675;28;20031;-77
2022/05/08 02:54:06;;;;;;;22.27;14.70;;;10.80;99.90;;;;;;4976050;28;20022;-77
2022/05/08 02:59:16;;;;;;;13.10;8.55;;;10.80;99.90;;;;;;4986657;28;20556;-77
2022/05/08 03:01:42;;;;;;;11.32;8.02;;;10.80;99.90;;;;;;4991714;28;20058;-78
2022/05/08 03:04:08;;;;;;;11.57;7.70;;;10.80;99.90;;;;;;4966993;28;20438;-78
2022/05/08 03:06:33;;;;;;;9.68;6.97;;;10.80;99.90;;;;;;4957768;28;20042;-77
2022/05/08 03:08:59;;;;;;;9.85;6.53;;;10.70;99.90;;;;;;4994337;28;20042;-77
2022/05/08 03:11:25;;;;;;;10.25;6.70;;;10.80;99.90;;;;;;4996180;28;20038;-78
2022/05/08 03:13:52;;;;;;;9.75;6.30;;;10.80;99.90;;;;;;4986439;28;20034;-78
2022/05/08 03:16:18;;;;;;;10.07;6.43;;;10.80;99.90;;;;;;4987554;28;20093;-78
2022/05/08 03:18:45;;;;;;;9.20;6.50;;;10.80;99.90;;;;;;4987389;28;20470;-78
2022/05/08 03:21:12;;;;;;;9.32;6.82;;;10.80;99.90;;;;;;4986146;28;20088;-78
2022/05/08 03:23:39;;;;;;;9.60;6.57;;;10.80;99.90;;;;;;4991063;28;20030;-77
2022/05/08 03:26:06;;;;;;;9.32;6.28;;;10.80;99.90;;;;;;4971081;28;20046;-78
2022/05/08 03:28:32;;;;;;;10.23;7.22;;;10.90;99.90;;;;;;4994349;28;20390;-77
2022/05/08 03:31:01;;;;;;;13.75;7.53;;;10.80;99.90;;;;;;4985651;28;20050;-78
2022/05/08 03:33:28;;;;;;;14.38;7.53;;;10.90;99.90;;;;;;4985548;28;20030;-77
2022/05/08 03:35:54;;;;;;;23.05;7.30;;;10.90;99.90;;;;;;4993152;28;20078;-77
2022/05/08 03:38:19;;;;;;;13.48;6.28;;;10.90;99.90;;;;;;4969904;28;20113;-77
2022/05/08 03:40:45;;;;;;;11.07;5.82;;;10.80;99.90;;;;;;4991991;28;20066;-77
2022/05/08 03:43:11;;;;;;;13.50;6.30;;;10.70;99.90;;;;;;4986497;28;20039;-77
2022/05/08 03:45:37;;;;;;;8.38;5.80;;;10.60;99.90;;;;;;4970330;28;20042;-77
2022/05/08 03:48:04;;;;;;;8.00;5.68;;;10.60;99.90;;;;;;4987399;28;20043;-78
2022/05/08 03:50:30;;;;;;;7.88;5.43;;;10.60;99.90;;;;;;4970612;28;20156;-77
2022/05/08 03:52:57;;;;;;;7.28;5.47;;;10.60;99.90;;;;;;4986345;28;20061;-77
2022/05/08 03:55:23;;;;;;;8.20;5.60;;;10.60;99.90;;;;;;4965087;28;20080;-76
2022/05/08 03:57:49;;;;;;;7.95;6.13;;;10.60;99.90;;;;;;4989146;28;20050;-77
2022/05/08 04:00:16;;;;;;;8.63;5.75;;;10.60;99.90;;;;;;4983107;28;20037;-77
2022/05/08 04:02:42;;;;;;;8.25;5.80;;;10.60;99.90;;;;;;4994181;28;20524;-78
2022/05/08 04:05:08;;;;;;;9.63;6.25;;;10.60;99.90;;;;;;4976620;28;20034;-78
2022/05/08 04:07:35;;;;;;;7.80;5.90;;;10.60;99.90;;;;;;4991680;28;20425;-78
2022/05/08 04:10:01;;;;;;;8.23;6.15;;;10.60;99.90;;;;;;4994371;28;20026;-77
2022/05/08 04:12:27;;;;;;;10.35;6.15;;;10.60;99.90;;;;;;4975270;28;20045;-77
2022/05/08 04:14:53;;;;;;;10.50;6.60;;;10.60;99.90;;;;;;4964012;28;20030;-77
2022/05/08 04:17:19;;;;;;;8.45;6.22;;;10.60;99.90;;;;;;4981314;28;20072;-77
2022/05/08 04:19:48;;;;;;;11.82;7.05;;;10.70;99.90;;;;;;4985006;28;20045;-78
2022/05/08 04:24:58;;;;;;;11.85;6.63;;;10.70;99.90;;;;;;4991145;28;20034;-78
2022/05/08 04:27:24;;;;;;;11.00;7.38;;;10.70;99.90;;;;;;4991939;28;20038;-78
2022/05/08 04:29:50;;;;;;;11.68;8.05;;;10.70;99.90;;;;;;4989705;28;20064;-77
2022/05/08 04:32:16;;;;;;;11.20;7.20;;;10.80;99.90;;;;;;4975759;28;20069;-78
2022/05/08 04:34:41;;;;;;;9.88;6.80;;;10.80;99.90;;;;;;4988942;28;20038;-78
2022/05/08 04:37:07;;;;;;;9.73;6.53;;;10.80;99.90;;;;;;4990102;28;20030;-77
2022/05/08 04:39:33;;;;;;;8.38;6.40;;;10.80;99.90;;;;;;4981266;28;20023;-77
2022/05/08 04:41:59;;;;;;;10.27;6.53;;;10.80;99.90;;;;;;4989907;28;20133;-77
2022/05/08 04:44:25;;;;;;;9.10;6.53;;;10.90;99.90;;;;;;4985611;28;20041;-78
2022/05/08 04:46:50;;;;;;;9.23;5.97;;;10.90;99.90;;;;;;4989435;28;20042;-78
2022/05/08 04:49:16;;;;;;;8.50;5.55;;;10.90;99.90;;;;;;4990744;28;20099;-78
2022/05/08 04:51:42;;;;;;;8.70;6.10;;;10.90;99.90;;;;;;4967937;28;20026;-77
2022/05/08 04:54:08;;;;;;;8.00;5.90;;;10.90;99.90;;;;;;4989086;28;20027;-77
2022/05/08 04:56:34;;;;;;;9.45;6.60;;;10.90;99.90;;;;;;4989977;28;20038;-78
2022/05/08 04:58:59;;;;;;;10.55;6.95;;;10.80;99.90;;;;;;4989290;28;20037;-78
2022/05/08 05:01:25;;;;;;;9.20;7.03;;;10.80;99.90;;;;;;4986260;28;20058;-78
2022/05/08 05:03:52;;;;;;;10.98;7.60;;;10.70;99.90;;;;;;4986812;28;20023;-78
2022/05/08 05:06:17;;;;;;;14.18;8.98;;;10.60;99.90;;;;;;4987166;28;20039;-78
2022/05/08 05:08:43;;;;;;;18.55;8.43;;;10.60;99.90;;;;;;4983959;28;20041;-77
2022/05/08 05:11:10;;;;;;;15.38;9.13;;;10.60;99.90;;;;;;4983667;28;21887;-77
2022/05/08 05:13:39;;;;;;;15.50;9.23;;;10.50;99.90;;;;;;4983298;28;20074;-77
2022/05/08 05:16:05;;;;;;;16.67;10.52;;;10.60;99.90;;;;;;4990999;28;20124;-78
2022/05/08 05:18:31;;;;;;;16.42;9.90;;;10.60;99.90;;;;;;4985478;28;20076;-77
2022/05/08 05:20:57;;;;;;;19.90;11.45;;;10.60;99.90;;;;;;4991261;28;20109;-78
2022/05/08 05:23:23;;;;;;;23.08;12.75;;;10.70;99.90;;;;;;4985283;28;20117;-77
2022/05/08 05:25:49;;;;;;;19.20;11.88;;;10.70;99.90;;;;;;4989155;28;20125;-77
2022/05/08 05:28:15;;;;;;;21.20;13.25;;;10.80;99.90;;;;;;4990622;28;20026;-77
2022/05/08 05:30:41;;;;;;;21.27;14.23;;;10.80;99.90;;;;;;4982110;28;20070;-77
2022/05/08 05:33:15;;;;;;;24.13;14.15;;;10.80;99.90;;;;;;4988865;28;20865;-77
2022/05/08 05:35:44;;;;;;;25.33;15.07;;;10.90;99.90;;;;;;4982078;28;20034;-77
2022/05/08 05:38:09;;;;;;;;;;;10.90;99.90;;;;;;4986415;28;20042;-78
2022/05/08 05:40:35;;;;;;;22.92;13.82;;;11.00;99.90;;;;;;4985506;28;19924;-78
2022/05/08 05:43:02;;;;;;;26.05;14.90;;;11.00;99.90;;;;;;4988459;28;20054;-78
2022/05/08 05:45:28;;;;;;;23.75;14.60;;;11.10;99.90;;;;;;4991548;28;20038;-78
2022/05/08 05:47:54;;;;;;;26.50;15.23;;;11.10;99.90;;;;;;4986785;28;20614;-78
2022/05/08 05:50:21;;;;;;;28.55;15.27;;;11.10;99.90;;;;;;4989018;28;20065;-77
2022/05/08 05:52:47;;;;;;;26.25;15.20;;;11.10;99.90;;;;;;4994734;28;20041;-78
2022/05/08 05:55:13;;;;;;;30.15;16.67;;;11.20;99.90;;;;;;4989077;28;20378;-78
2022/05/08 05:57:39;;;;;;;28.83;16.55;;;11.20;99.90;;;;;;4988714;28;20038;-78
2022/05/08 06:00:07;;;;;;;27.25;16.17;;;11.30;99.90;;;;;;4987421;28;20058;-78
2022/05/08 06:02:33;;;;;;;24.92;15.90;;;11.30;99.90;;;;;;4982230;28;20059;-78
2022/05/08 06:04:58;;;;;;;29.55;15.82;;;11.40;99.90;;;;;;4982151;28;20561;-77
2022/05/08 06:07:24;;;;;;;25.02;14.55;;;11.40;99.90;;;;;;4992836;28;20050;-78
2022/05/08 06:09:49;;;;;;;27.08;16.05;;;11.40;99.90;;;;;;4984562;28;20121;-78
2022/05/08 06:12:16;;;;;;;23.33;15.23;;;11.50;99.90;;;;;;4976430;28;20045;-77
2022/05/08 06:14:42;;;;;;;22.52;14.88;;;11.50;99.90;;;;;;4984132;28;20046;-78
2022/05/08 06:17:07;;;;;;;26.02;15.25;;;11.60;99.90;;;;;;4989454;28;20026;-78
2022/05/08 06:19:33;;;;;;;29.95;16.42;;;11.60;99.90;;;;;;4985678;28;20133;-76
2022/05/08 06:21:59;;;;;;;31.42;17.40;;;11.70;99.90;;;;;;4987194;28;20146;-76
2022/05/08 06:24:25;;;;;;;26.45;15.80;;;11.70;99.90;;;;;;4989131;28;20161;-76
2022/05/08 06:26:51;;;;;;;27.42;16.45;;;11.80;99.90;;;;;;4981976;28;20177;-76
2022/05/08 06:29:16;;;;;;;25.73;16.00;;;11.70;99.90;;;;;;4987144;28;20042;-76
2022/05/08 06:31:42;;;;;;;24.15;15.27;;;11.80;99.90;;;;;;4985678;28;20124;-76
2022/05/08 06:34:08;;;;;;;26.75;16.40;;;11.90;99.90;;;;;;4987749;28;20066;-76
2022/05/08 06:36:34;;;;;;;25.63;15.70;;;11.90;99.90;;;;;;4987091;28;20073;-76
2022/05/08 06:39:00;;;;;;;26.98;15.40;;;12.00;99.90;;;;;;4988791;28;20090;-77
2022/05/08 06:41:27;;;;;;;26.13;15.60;;;12.00;99.90;;;;;;4989190;28;20042;-76
2022/05/08 06:43:53;;;;;;;23.00;14.73;;;12.10;99.90;;;;;;4989296;28;20092;-77
2022/05/08 06:46:19;;;;;;;25.88;16.13;;;12.20;99.90;;;;;;4988554;28;20148;-76
2022/05/08 06:48:47;;;;;;;27.63;15.73;;;12.30;99.90;;;;;;4980500;28;20034;-77
2022/05/08 06:51:13;;;;;;;26.37;16.23;;;12.30;99.90;;;;;;4988766;28;20359;-76
2022/05/08 06:53:38;;;;;;;26.42;17.05;;;12.40;99.90;;;;;;4989781;28;20357;-76
2022/05/08 06:56:05;;;;;;;27.02;15.88;;;12.60;99.90;;;;;;4989060;28;20030;-77
2022/05/08 06:58:30;;;;;;;26.02;15.73;;;12.70;99.90;;;;;;4988815;28;20141;-76
2022/05/08 07:03:40;;;;;;;23.67;16.33;;;12.80;99.90;;;;;;4986790;28;20073;-78
2022/05/08 07:06:06;;;;;;;27.85;16.30;;;12.90;99.90;;;;;;4987748;28;20026;-78
2022/05/08 07:08:33;;;;;;;28.88;16.73;;;13.10;99.90;;;;;;4989718;28;20125;-78
2022/05/08 07:11:00;;;;;;;23.52;16.35;;;13.20;99.90;;;;;;4989801;28;20070;-79
2022/05/08 07:13:26;;;;;;;24.92;15.43;;;13.30;99.90;;;;;;4984696;28;20037;-78
2022/05/08 07:15:53;;;;;;;24.20;16.02;;;13.40;99.90;;;;;;4993399;28;20034;-79
2022/05/08 07:18:19;;;;;;;26.35;15.77;;;13.50;99.90;;;;;;4987031;28;20035;-78
2022/05/08 07:20:45;;;;;;;27.67;16.17;;;13.70;99.90;;;;;;4979838;28;20484;-79
2022/05/08 07:23:11;;;;;;;26.48;16.05;;;13.80;99.90;;;;;;4990298;28;20137;-78
2022/05/08 07:25:38;;;;;;;23.80;15.30;;;13.90;99.90;;;;;;4988889;28;20030;-79
2022/05/08 07:28:05;;;;;;;25.13;16.90;;;14.00;99.90;;;;;;4989956;28;20025;-78
2022/05/08 07:30:30;;;;;;;24.13;15.60;;;14.20;99.90;;;;;;4989135;28;20076;-78
2022/05/08 07:33:00;;;;;;;25.95;15.93;;;14.20;99.90;;;;;;4991170;28;20058;-78
2022/05/08 07:38:10;;;;;;;25.60;15.00;;;14.20;99.90;;;;;;4990469;28;20065;-78
2022/05/08 07:40:35;;;;;;;27.05;15.55;;;14.30;99.90;;;;;;4985557;28;20466;-78
2022/05/08 07:43:01;;;;;;;22.38;15.20;;;14.30;99.90;;;;;;4990331;28;20026;-78
2022/05/08 07:45:28;;;;;;;23.35;15.20;;;14.30;99.90;;;;;;4988441;28;21008;-78
2022/05/08 07:47:55;;;;;;;21.42;14.48;;;14.30;99.90;;;;;;4992518;28;20133;-78
2022/05/08 07:50:21;;;;;;;23.10;14.27;;;14.30;99.90;;;;;;4989363;28;20045;-78
2022/05/08 07:52:46;;;;;;;21.27;14.98;;;14.30;99.90;;;;;;4990538;28;20027;-78
2022/05/08 07:55:12;;;;;;;23.27;14.65;;;14.40;99.90;;;;;;4985419;28;20491;-78
2022/05/08 07:57:37;;;;;;;22.40;15.43;;;14.40;99.90;;;;;;4993783;28;20042;-77
2022/05/08 08:00:05;;;;;;;18.27;12.68;;;14.40;99.90;;;;;;4988834;28;20445;-78
2022/05/08 08:02:30;;;;;;;22.50;14.77;;;14.40;99.90;;;;;;4990938;28;20062;-78
2022/05/08 08:04:56;;;;;;;24.80;15.07;;;14.40;99.90;;;;;;4984146;28;20093;-78
2022/05/08 08:07:22;;;;;;;23.42;14.50;;;14.50;99.90;;;;;;4988309;28;20470;-78
2022/05/08 08:09:48;;;;;;;22.10;13.63;;;14.50;99.90;;;;;;4990705;28;20045;-79
2022/05/08 08:12:13;;;;;;;22.45;14.35;;;14.50;99.90;;;;;;4993863;28;20433;-78
2022/05/08 08:14:39;;;;;;;23.98;14.63;;;14.60;99.90;;;;;;4991831;28;20073;-78
2022/05/08 08:17:05;;;;;;;20.40;13.75;;;14.60;99.90;;;;;;4991130;28;20030;-78
2022/05/08 08:19:30;;;;;;;19.00;12.88;;;14.70;99.90;;;;;;4992637;28;20027;-78
2022/05/08 08:21:56;;;;;;;20.13;13.18;;;14.60;99.90;;;;;;4993779;28;20184;-78
2022/05/08 08:24:22;;;;;;;20.45;13.45;;;14.60;99.90;;;;;;4985573;28;20022;-78
2022/05/08 08:26:47;;;;;;;20.83;14.25;;;14.60;99.90;;;;;;4990433;28;20386;-79
2022/05/08 08:29:14;;;;;;;21.30;13.50;;;14.70;99.90;;;;;;4992360;28;20022;-78
2022/05/08 08:31:40;;;;;;;20.40;14.73;;;14.70;99.90;;;;;;4986624;28;20042;-78
2022/05/08 08:34:06;;;;;;;18.27;13.38;;;14.70;99.90;;;;;;4990617;28;20046;-78
2022/05/08 08:36:31;;;;;;;19.17;13.02;;;14.70;99.90;;;;;;4991610;28;20038;-78
2022/05/08 08:38:57;;;;;;;18.83;12.77;;;14.70;99.90;;;;;;4991546;28;20037;-78
2022/05/08 08:41:31;;;;;;;19.77;12.85;;;14.70;99.90;;;;;;4988288;28;20045;-78
2022/05/08 08:49:40;;;;;;;19.92;12.65;;;14.80;99.90;;;;;;4983164;28;20049;-78
2022/05/08 08:52:06;;;;;;;17.38;12.48;;;14.80;99.90;;;;;;4993859;28;20038;-78
2022/05/08 08:54:34;;;;;;;20.90;13.10;;;14.80;99.90;;;;;;4983845;28;20516;-78
2022/05/08 08:56:59;;;;;;;22.25;14.65;;;14.80;99.90;;;;;;4987578;28;20195;-78
2022/05/08 08:59:25;;;;;;;18.67;13.10;;;14.80;99.90;;;;;;4989069;28;20038;-78
2022/05/08 09:01:51;;;;;;;19.02;13.40;;;14.70;99.90;;;;;;4987205;28;20074;-78
2022/05/08 09:04:18;;;;;;;22.30;14.98;;;14.70;99.90;;;;;;4991832;28;20030;-79
2022/05/08 09:06:45;;;;;;;21.05;13.88;;;14.50;99.90;;;;;;4991337;28;20153;-78
2022/05/08 09:09:33;;;;;;;18.88;12.57;;;14.50;99.90;;;;;;4993052;28;20062;-77
2022/05/08 09:11:59;;;;;;;20.55;13.57;;;14.40;99.90;;;;;;4993382;28;20034;-77
2022/05/08 09:14:33;;;;;;;19.33;14.02;;;14.30;99.90;;;;;;4988281;28;20038;-77
2022/05/08 09:17:03;;;;;;;22.55;14.68;;;14.30;99.90;;;;;;4985980;28;20043;-77
2022/05/08 09:19:36;;;;;;;20.13;13.68;;;14.20;99.90;;;;;;4991640;28;20038;-78
2022/05/08 09:22:03;;;;;;;23.83;14.32;;;14.10;99.90;;;;;;4985059;28;20046;-76
2022/05/08 09:24:30;;;;;;;26.15;15.02;;;14.10;99.90;;;;;;4991735;28;20038;-77
2022/05/08 09:27:16;;;;;;;23.45;15.10;;;14.10;99.90;;;;;;4989173;28;20026;-77
2022/05/08 09:29:42;;;;;;;22.92;14.35;;;14.10;99.90;;;;;;4991675;28;20049;-77
2022/05/08 09:32:30;;;;;;;21.63;14.02;;;14.10;99.90;;;;;;4977226;28;20065;-77
2022/05/08 09:34:59;;;;;;;21.90;14.53;;;14.10;99.90;;;;;;4973185;28;20069;-76
2022/05/08 09:37:27;;;;;;;25.77;14.70;;;14.00;99.90;;;;;;4969650;28;20030;-77
2022/05/08 09:40:16;;;;;;;22.63;15.73;;;13.90;99.90;;;;;;4969114;28;20069;-76
2022/05/08 09:42:42;;;;;;;22.45;14.90;;;13.90;99.90;;;;;;4969735;28;20932;-77
2022/05/08 09:45:09;;;;;;;23.95;15.27;;;13.80;99.90;;;;;;4967480;28;20073;-77
2022/05/08 09:47:44;;;;;;;20.70;13.98;;;13.70;99.90;;;;;;4970650;28;20039;-77
2022/05/08 09:50:11;;;;;;;23.17;14.57;;;13.70;99.90;;;;;;4967934;28;20039;-76
2022/05/08 09:52:41;;;;;;;18.90;14.40;;;13.70;99.90;;;;;;4968634;28;20075;-78
2022/05/08 09:55:10;;;;;;;19.95;14.45;;;13.70;99.90;;;;;;4968542;28;20038;-77
2022/05/08 09:57:36;;;;;;;20.58;14.55;;;13.80;99.90;;;;;;4966474;28;20541;-77
2022/05/08 10:00:07;;;;;;;19.80;13.40;;;13.70;99.90;;;;;;4963675;28;20058;-77
2022/05/08 10:02:34;;;;;;;19.65;13.32;;;13.70;99.90;;;;;;4959779;28;20051;-76
2022/05/08 10:05:01;;;;;;;19.35;12.98;;;13.80;99.90;;;;;;4962100;28;20061;-76
2022/05/08 10:07:27;;;;;;;19.02;13.38;;;13.80;99.90;;;;;;4960150;28;20051;-76
2022/05/08 10:15:29;;;;;;;19.70;12.95;;;14.00;99.90;;;;;;4963716;28;20166;-76
2022/05/08 10:18:23;;;;;;;20.48;12.48;;;14.10;99.90;;;;;;4962402;28;20080;-76
2022/05/08 10:21:12;;;;;;;20.27;13.07;;;14.20;99.90;;;;;;4963799;28;20075;-76
2022/05/08 10:23:43;;;;;;;17.73;12.35;;;14.30;99.90;;;;;;4965071;28;20113;-77
2022/05/08 10:26:20;;;;;;;20.38;12.15;;;14.40;99.90;;;;;;4964565;28;20066;-76
2022/05/08 10:29:12;;;;;;;19.17;12.43;;;14.40;99.90;;;;;;4964418;28;20038;-76
2022/05/08 10:31:50;;;;;;;17.83;12.55;;;14.60;99.90;;;;;;4955189;28;20053;-77
2022/05/08 10:34:39;;;;;;;18.15;12.48;;;14.60;99.90;;;;;;4964922;28;20031;-77
2022/05/08 10:37:13;;;;;;;17.95;12.50;;;14.60;99.90;;;;;;4965597;28;20043;-76
2022/05/08 10:39:43;;;;;;;18.02;11.77;;;14.70;99.90;;;;;;4969200;28;20062;-76
2022/05/08 10:42:29;;;;;;;16.48;11.85;;;14.80;99.90;;;;;;4959885;28;20150;-75
2022/05/08 10:44:58;;;;;;;15.52;10.95;;;14.80;99.90;;;;;;4952566;28;20049;-77
2022/05/08 10:47:33;;;;;;;15.77;11.25;;;14.80;99.90;;;;;;4964171;28;20467;-76
2022/05/08 10:50:13;;;;;;;14.75;10.73;;;14.80;99.90;;;;;;4949901;28;20098;-76
2022/05/08 10:52:46;;;;;;;14.48;10.77;;;14.90;99.90;;;;;;4964329;28;20035;-77
2022/05/08 10:55:17;;;;;;;13.73;10.88;;;14.90;99.90;;;;;;4963734;28;20022;-75
2022/05/08 10:57:45;;;;;;;12.63;9.82;;;15.10;99.90;;;;;;4957964;28;20046;-75
2022/05/08 11:00:27;;;;;;;12.15;8.82;;;15.20;99.90;;;;;;4958662;28;20035;-75
2022/05/08 11:02:59;;;;;;;12.30;9.20;;;15.30;99.90;;;;;;4979268;28;20058;-75
2022/05/08 11:05:27;;;;;;;11.63;8.85;;;15.50;99.90;;;;;;4981299;28;20030;-75
2022/05/08 11:07:56;;;;;;;9.98;7.85;;;15.60;99.90;;;;;;4981766;28;20046;-76
2022/05/08 11:10:28;;;;;;;11.43;8.82;;;15.60;99.90;;;;;;4984076;28;20045;-76
2022/05/08 11:13:14;;;;;;;12.18;8.40;;;15.60;99.90;;;;;;4982932;28;20125;-76
2022/05/08 11:15:43;;;;;;;10.32;7.40;;;15.60;99.90;;;;;;4982332;28;20030;-75
2022/05/08 11:18:19;;;;;;;10.50;7.75;;;15.80;99.90;;;;;;4985538;28;20034;-75
2022/05/08 11:20:55;;;;;;;10.82;7.95;;;15.80;99.90;;;;;;4983533;28;20096;-76
2022/05/08 11:23:33;;;;;;;10.48;7.80;;;15.90;99.90;;;;;;4983664;28;20070;-76
2022/05/08 11:26:06;;;;;;;9.65;7.32;;;15.90;99.90;;;;;;4983556;28;20034;-76
2022/05/08 11:28:34;;;;;;;10.48;7.72;;;15.90;99.90;;;;;;4982671;28;20041;-75
2022/05/08 11:31:10;;;;;;;10.85;7.78;;;16.00;99.90;;;;;;4983110;28;20077;-75
2022/05/08 11:36:27;;;;;;;12.88;9.50;;;16.10;99.90;;;;;;4983334;28;20548;-75
2022/05/08 11:39:01;;;;;;;11.38;9.30;;;15.90;99.90;;;;;;4988765;28;20113;-76
2022/05/08 11:41:35;;;;;;;11.70;9.32;;;15.50;99.90;;;;;;4982981;28;20117;-75
2022/05/08 11:44:14;;;;;;;13.48;10.27;;;15.20;99.90;;;;;;4968466;28;20088;-76
2022/05/08 11:46:48;;;;;;;13.52;10.05;;;15.00;99.90;;;;;;4985028;28;20442;-76
2022/05/08 11:49:29;;;;;;;15.32;9.55;;;14.90;99.90;;;;;;4985050;28;20031;-75
2022/05/08 11:51:56;;;;;;;14.10;10.27;;;14.90;99.90;;;;;;4988552;28;20366;-75
2022/05/08 11:54:30;;;;;;;15.73;9.98;;;15.00;99.90;;;;;;4985468;28;20030;-75
2022/05/08 11:57:44;;;;;;;14.00;10.30;;;15.10;99.90;;;;;;4985253;28;20049;-75
2022/05/08 12:00:12;;;;;;;15.38;11.15;;;15.10;99.90;;;;;;4896135;29;20104;-76
2022/05/08 12:02:39;;;;;;;;;;;15.20;99.90;;;;;;4958087;28;20239;-76
2022/05/08 12:05:05;;;;;;;15.05;10.27;;;15.30;99.90;;;;;;4980782;28;19916;-76
2022/05/08 12:07:41;;;;;;;12.80;9.80;;;15.20;99.90;;;;;;4968962;28;20046;-76
2022/05/08 12:10:10;;;;;;;13.50;9.30;;;15.10;99.90;;;;;;4970149;28;20022;-76
2022/05/08 12:12:37;;;;;;;11.75;8.95;;;15.00;99.90;;;;;;4962464;28;20121;-76
2022/05/08 12:15:11;;;;;;;12.93;9.77;;;14.90;99.90;;;;;;4968606;28;20356;-76
2022/05/08 12:17:39;;;;;;;13.98;10.15;;;14.80;99.90;;;;;;4970915;28;20398;-75
2022/05/08 12:20:15;;;;;;;;;;;14.70;99.90;;;;;;4968267;28;20501;-76
2022/05/08 12:22:41;;;;;;;13.35;9.00;;;14.70;99.90;;;;;;4958845;28;19918;-76
2022/05/08 12:25:08;;;;;;;12.38;9.20;;;14.60;99.90;;;;;;4961401;28;20034;-75
2022/05/08 12:27:34;;;;;;;14.27;10.15;;;14.50;99.90;;;;;;4964413;28;20026;-76
2022/05/08 12:30:01;;;;;;;14.05;10.15;;;14.50;99.90;;;;;;4963174;28;20062;-76
2022/05/08 12:32:27;;;;;;;15.88;11.43;;;14.50;99.90;;;;;;4980302;28;20042;-75
2022/05/08 12:34:54;;;;;;;13.55;11.07;;;14.40;99.90;;;;;;4980773;28;20136;-75
2022/05/08 12:37:21;;;;;;;17.15;11.35;;;14.30;99.90;;;;;;4981150;28;21527;-75
2022/05/08 12:39:47;;;;;;;18.05;11.63;;;14.30;99.90;;;;;;4980426;28;20117;-75
2022/05/08 12:42:13;;;;;;;14.50;10.55;;;14.30;99.90;;;;;;4980578;28;20047;-75
2022/05/08 12:44:39;;;;;;;16.13;11.52;;;14.30;99.90;;;;;;4976091;28;20033;-75
2022/05/08 12:47:10;;;;;;;15.88;11.25;;;14.40;99.90;;;;;;4978932;28;20384;-76
2022/05/08 12:49:37;;;;;;;12.93;10.35;;;14.50;99.90;;;;;;4978725;28;20465;-76
2022/05/08 12:52:05;;;;;;;13.27;10.30;;;14.60;99.90;;;;;;4983106;28;20355;-75
2022/05/08 12:54:30;;;;;;;16.02;11.77;;;14.60;99.90;;;;;;4982426;28;20297;-77
2022/05/08 12:56:58;;;;;;;16.90;11.43;;;14.70;99.90;;;;;;4986419;28;20048;-77
2022/05/08 13:02:11;;;;;;;16.10;11.63;;;14.80;99.90;;;;;;4984218;28;20084;-77
2022/05/08 13:04:37;;;;;;;13.70;10.43;;;14.90;99.90;;;;;;4986894;28;20034;-77
2022/05/08 13:07:03;;;;;;;13.93;9.95;;;15.00;99.90;;;;;;4986933;28;20122;-76
2022/05/08 13:09:28;;;;;;;13.55;10.23;;;15.00;99.90;;;;;;4989649;28;20121;-77